createdAt,value
2023-02-24T00:00:32.016Z,12.00
2023-02-24T00:08:42.080Z,12.60
2023-02-24T00:12:47.023Z,9.45
2023-02-24T00:16:50.305Z,11.98
2023-02-24T00:20:57.545Z,11.52
2023-02-24T00:25:02.491Z,18.10
2023-02-24T00:29:06.942Z,13.15
2023-02-24T00:33:12.410Z,9.38
2023-02-24T00:37:16.629Z,13.93
2023-02-24T00:41:22.532Z,11.23
2023-02-24T00:45:30.785Z,14.63
2023-02-24T00:49:35.790Z,14.75
2023-02-24T00:53:41.271Z,17.45
2023-02-24T00:57:45.224Z,13.57
2023-02-24T01:01:50.341Z,13.48
2023-02-24T01:05:53.696Z,9.80
2023-02-24T01:09:57.860Z,15.57
2023-02-24T01:14:00.829Z,13.63
2023-02-24T01:18:03.591Z,11.57
2023-02-24T01:22:10.005Z,11.82
2023-02-24T01:26:14.491Z,14.27
2023-02-24T01:30:18.673Z,11.07
2023-02-24T01:34:21.563Z,9.85
2023-02-24T01:38:25.316Z,17.30
2023-02-24T01:42:29.500Z,12.63
2023-02-24T01:46:34.178Z,11.35
2023-02-24T01:50:38.655Z,13.27
2023-02-24T01:54:45.161Z,13.85
2023-02-24T01:58:49.957Z,12.70
2023-02-24T02:02:53.353Z,12.90
2023-02-24T02:06:57.432Z,14.30
2023-02-24T02:11:06.547Z,12.68
2023-02-24T02:15:13.061Z,13.70
2023-02-24T02:20:00.427Z,16.70
2023-02-24T02:24:36.325Z,13.90
2023-02-24T02:29:18.720Z,12.07
2023-02-24T02:34:12.740Z,14.85
2023-02-24T02:38:26.187Z,13.18
2023-02-24T02:42:31.702Z,16.20
2023-02-24T02:46:41.941Z,14.07
2023-02-24T02:50:49.370Z,11.30
2023-02-24T02:54:57.786Z,13.32
2023-02-24T02:59:02.641Z,18.42
2023-02-24T03:03:09.600Z,11.40
2023-02-24T03:07:15.450Z,14.57
2023-02-24T03:11:21.512Z,13.10
2023-02-24T03:15:27.477Z,20.38
2023-02-24T03:19:37.313Z,11.23
2023-02-24T03:23:46.036Z,16.92
2023-02-24T03:27:53.184Z,12.48
2023-02-24T03:32:01.764Z,12.40
2023-02-24T03:36:05.752Z,15.88
2023-02-24T03:40:14.571Z,13.13
2023-02-24T03:44:19.094Z,10.95
2023-02-24T03:48:22.787Z,16.23
2023-02-24T03:52:32.566Z,12.15
2023-02-24T03:56:46.753Z,12.98
2023-02-24T04:00:59.545Z,11.27
2023-02-24T04:05:11.883Z,11.77
2023-02-24T04:09:33.196Z,13.45
2023-02-24T04:13:47.407Z,13.68
2023-02-24T04:17:58.497Z,14.35
2023-02-24T04:22:07.004Z,20.42
2023-02-24T04:26:13.655Z,17.20
2023-02-24T04:30:17.320Z,14.80
2023-02-24T04:34:21.507Z,12.35
2023-02-24T04:38:25.768Z,9.07
2023-02-24T04:42:29.641Z,14.63
2023-02-24T04:46:32.950Z,17.20
2023-02-24T04:50:38.512Z,14.52
2023-02-24T04:54:41.299Z,14.80
2023-02-24T04:58:46.339Z,12.70
2023-02-24T05:02:49.927Z,10.38
2023-02-24T05:06:57.320Z,11.85
2023-02-24T05:11:03.761Z,14.10
2023-02-24T05:15:08.183Z,24.88
2023-02-24T05:19:40.297Z,15.63
2023-02-24T05:23:45.689Z,12.75
2023-02-24T05:27:48.514Z,15.00
2023-02-24T05:31:54.363Z,10.23
2023-02-24T05:35:57.410Z,12.15
2023-02-24T05:40:01.580Z,10.20
2023-02-24T05:44:08.578Z,18.65
2023-02-24T05:48:11.596Z,15.27
2023-02-24T05:52:14.864Z,12.55
2023-02-24T05:56:19.252Z,13.32
2023-02-24T06:00:25.849Z,10.23
2023-02-24T06:04:39.389Z,9.07
2023-02-24T06:08:49.205Z,11.02
2023-02-24T06:12:55.124Z,12.68
2023-02-24T06:17:00.838Z,10.95
2023-02-24T06:21:04.316Z,14.65
2023-02-24T06:25:08.532Z,16.58
2023-02-24T06:29:16.708Z,11.82
2023-02-24T06:33:19.544Z,13.25
2023-02-24T06:37:22.790Z,15.70
2023-02-24T06:41:29.405Z,9.70
2023-02-24T06:45:33.727Z,10.93
2023-02-24T06:49:36.732Z,9.10
2023-02-24T06:53:43.139Z,11.57
2023-02-24T06:57:46.000Z,11.15
2023-02-24T07:01:50.463Z,11.10
2023-02-24T07:06:10.973Z,10.10
2023-02-24T07:10:14.386Z,9.45
2023-02-24T07:14:17.167Z,12.20
2023-02-24T07:18:21.410Z,19.13
2023-02-24T07:22:25.243Z,13.55
2023-02-24T07:26:30.310Z,10.45
2023-02-24T07:30:34.214Z,17.75
2023-02-24T07:34:40.217Z,14.50
2023-02-24T07:38:43.903Z,10.23
2023-02-24T07:42:47.656Z,17.13
2023-02-24T07:46:52.383Z,14.05
2023-02-24T07:50:56.565Z,12.38
2023-02-24T07:55:00.183Z,11.88
2023-02-24T07:59:07.836Z,16.73
2023-02-24T08:03:10.604Z,11.00
2023-02-24T08:07:14.984Z,14.93
2023-02-24T08:11:17.950Z,16.58
2023-02-24T08:15:24.552Z,10.27
2023-02-24T08:23:44.561Z,16.48
2023-02-24T08:28:06.969Z,15.55
2023-02-24T08:32:11.539Z,15.68
2023-02-24T08:36:21.371Z,11.80
2023-02-24T08:40:39.411Z,13.02
2023-02-24T08:44:42.509Z,13.40
2023-02-24T08:48:47.359Z,14.45
2023-02-24T08:52:50.769Z,16.67
2023-02-24T08:56:56.922Z,24.52
2023-02-24T09:01:00.186Z,18.52
2023-02-24T09:05:11.865Z,15.02
2023-02-24T09:09:19.336Z,24.83
2023-02-24T09:13:27.805Z,19.05
2023-02-24T09:17:41.135Z,13.25
2023-02-24T09:22:02.935Z,14.80
2023-02-24T09:26:11.121Z,18.00
2023-02-24T09:30:35.761Z,16.25
2023-02-24T09:34:43.988Z,15.85
2023-02-24T09:39:06.649Z,21.00
2023-02-24T09:43:17.546Z,13.98
2023-02-24T09:47:39.660Z,15.35
2023-02-24T09:51:45.443Z,17.95
2023-02-24T09:56:04.808Z,18.88
2023-02-24T10:00:26.089Z,13.57
2023-02-24T10:04:53.962Z,16.67
2023-02-24T10:09:11.467Z,14.95
2023-02-24T10:13:30.184Z,12.38
2023-02-24T10:17:40.258Z,13.68
2023-02-24T10:22:00.226Z,16.15
2023-02-24T10:26:08.989Z,12.75
2023-02-24T10:30:20.536Z,13.98
2023-02-24T10:34:31.778Z,20.35
2023-02-24T10:38:36.543Z,19.63
2023-02-24T10:42:48.101Z,19.88
2023-02-24T10:47:11.221Z,15.40
2023-02-24T10:51:20.096Z,17.10
2023-02-24T10:55:29.053Z,16.08
2023-02-24T10:59:48.318Z,14.45
2023-02-24T11:04:12.293Z,13.38
2023-02-24T11:08:36.372Z,21.70
2023-02-24T11:13:09.281Z,16.38
2023-02-24T11:17:23.372Z,17.80
2023-02-24T11:21:28.454Z,20.40
2023-02-24T11:25:37.422Z,14.98
2023-02-24T11:30:01.314Z,16.50
2023-02-24T11:50:58.675Z,20.58
2023-02-24T11:55:29.632Z,21.67
2023-02-24T11:59:36.721Z,19.75
2023-02-24T12:03:50.484Z,16.80
2023-02-24T12:07:55.920Z,14.60
2023-02-24T12:12:03.076Z,19.52
2023-02-24T12:16:11.622Z,20.85
2023-02-24T12:20:22.220Z,18.48
2023-02-24T12:24:25.141Z,20.38
2023-02-24T12:28:56.880Z,19.13
2023-02-24T12:33:10.512Z,39.00
2023-02-24T12:37:51.004Z,20.55
2023-02-24T12:42:07.469Z,27.80
2023-02-24T12:46:22.164Z,24.10
2023-02-24T12:50:32.524Z,21.17
2023-02-24T12:54:39.702Z,24.42
2023-02-24T12:58:45.857Z,20.05
2023-02-24T13:02:58.335Z,18.48
2023-02-24T13:07:13.726Z,20.35
2023-02-24T13:11:27.518Z,19.20
2023-02-24T13:15:31.473Z,22.90
2023-02-24T13:19:36.821Z,27.85
2023-02-24T13:23:43.130Z,17.85
2023-02-24T13:27:56.895Z,25.05
2023-02-24T13:31:59.845Z,26.35
2023-02-24T13:36:22.759Z,22.75
2023-02-24T13:40:28.183Z,24.73
2023-02-24T13:44:31.873Z,29.38
2023-02-24T13:48:54.920Z,22.25
2023-02-24T13:53:25.881Z,25.08
2023-02-24T13:57:48.866Z,29.92
2023-02-24T14:01:58.296Z,28.95
2023-02-24T14:06:02.688Z,28.65
2023-02-24T14:10:19.017Z,26.20
2023-02-24T14:14:22.305Z,28.85
2023-02-24T14:18:27.786Z,26.83
2023-02-24T14:22:30.691Z,33.15
2023-02-24T14:26:42.463Z,28.25
2023-02-24T14:30:46.315Z,30.75
2023-02-24T14:34:49.287Z,30.52
2023-02-24T14:39:02.683Z,26.65
2023-02-24T14:43:16.026Z,26.73
2023-02-24T14:47:21.364Z,25.35
2023-02-24T14:51:29.414Z,24.20
2023-02-24T14:55:35.486Z,26.23
2023-02-24T14:59:41.837Z,28.42
2023-02-24T15:03:48.070Z,26.50
2023-02-24T15:07:51.951Z,31.10
2023-02-24T15:11:56.193Z,28.67
2023-02-24T15:16:06.996Z,26.08
2023-02-24T15:20:32.142Z,19.00
2023-02-24T15:24:36.079Z,23.55
2023-02-24T15:28:39.312Z,28.42
2023-02-24T15:32:43.639Z,25.42
2023-02-24T15:36:46.783Z,26.10
2023-02-24T15:40:53.113Z,26.00
2023-02-24T15:44:58.621Z,27.17
2023-02-24T15:49:05.080Z,23.05
2023-02-24T15:53:12.804Z,26.30
2023-02-24T15:57:17.573Z,24.60
2023-02-24T16:01:22.052Z,28.67
2023-02-24T16:05:30.563Z,28.92
2023-02-24T16:09:37.362Z,23.65
2023-02-24T16:13:41.062Z,28.35
2023-02-24T16:17:44.306Z,28.63
2023-02-24T16:21:48.629Z,22.23
2023-02-24T16:25:54.902Z,22.63
2023-02-24T16:29:58.069Z,34.08
2023-02-24T16:34:01.057Z,22.98
2023-02-24T16:38:06.027Z,30.45
2023-02-24T16:42:10.528Z,26.17
2023-02-24T16:46:16.619Z,18.15
2023-02-24T16:50:23.320Z,22.02
2023-02-24T16:54:29.224Z,24.13
2023-02-24T16:58:32.524Z,21.08
2023-02-24T17:02:35.535Z,21.92
2023-02-24T17:06:38.429Z,24.90
2023-02-24T17:10:43.869Z,23.88
2023-02-24T17:14:46.680Z,17.57
2023-02-24T17:18:49.500Z,29.85
2023-02-24T17:22:52.358Z,24.27
2023-02-24T17:26:58.786Z,21.67
2023-02-24T17:31:01.635Z,22.42
2023-02-24T17:35:04.619Z,19.20
2023-02-24T17:39:07.446Z,10.93
2023-02-24T17:43:11.899Z,12.52
2023-02-24T17:47:14.656Z,15.32
2023-02-24T17:51:19.657Z,17.45
2023-02-24T17:55:22.630Z,13.60
2023-02-24T17:59:26.793Z,18.40
2023-02-24T18:03:29.736Z,20.52
2023-02-24T18:07:32.509Z,22.90
2023-02-24T18:11:35.375Z,20.38
2023-02-24T18:15:40.755Z,22.63
2023-02-24T18:19:43.581Z,25.92
2023-02-24T18:23:46.570Z,22.42
2023-02-24T18:27:49.316Z,28.90
2023-02-24T18:31:53.728Z,34.72
2023-02-24T18:36:00.433Z,23.58
2023-02-24T18:40:03.263Z,32.30
2023-02-24T18:44:06.508Z,21.88
2023-02-24T18:48:10.716Z,21.92
2023-02-24T18:52:13.586Z,25.58
2023-02-24T18:56:18.670Z,25.15
2023-02-24T19:00:21.926Z,22.67
2023-02-24T19:04:26.493Z,34.58
2023-02-24T19:08:29.322Z,31.90
2023-02-24T19:12:32.106Z,27.92
2023-02-24T19:16:35.071Z,27.42
2023-02-24T19:20:42.812Z,26.65
2023-02-24T19:24:45.693Z,23.23
2023-02-24T19:28:48.625Z,24.48
2023-02-24T19:32:51.527Z,32.95
2023-02-24T19:36:55.865Z,25.25
2023-02-24T19:40:59.688Z,28.48
2023-02-24T19:45:02.471Z,21.52
2023-02-24T19:49:05.585Z,18.08
2023-02-24T19:53:09.980Z,22.45
2023-02-24T19:57:12.802Z,18.35
2023-02-24T20:01:15.889Z,14.68
2023-02-24T20:05:18.899Z,26.00
2023-02-24T20:09:23.335Z,24.50
2023-02-24T20:13:26.305Z,26.67
2023-02-24T20:17:29.064Z,20.10
2023-02-24T20:21:31.872Z,27.70
2023-02-24T20:25:36.030Z,22.48
2023-02-24T20:29:38.816Z,14.95
2023-02-24T20:33:42.771Z,28.05
2023-02-24T20:37:45.556Z,16.98
2023-02-24T20:41:50.512Z,10.25
2023-02-24T20:45:53.440Z,16.13
2023-02-24T20:49:56.276Z,15.40
2023-02-24T20:53:59.210Z,20.92
2023-02-24T20:58:03.648Z,21.55
2023-02-24T21:02:06.471Z,19.25
2023-02-24T21:06:11.196Z,30.02
2023-02-24T21:10:15.263Z,20.67
2023-02-24T21:14:19.507Z,20.20
2023-02-24T21:18:23.725Z,12.48
2023-02-24T21:22:26.513Z,8.25
2023-02-24T21:26:29.368Z,10.38
2023-02-24T21:30:33.540Z,6.97
2023-02-24T21:34:36.371Z,8.23
2023-02-24T21:38:39.204Z,8.88
2023-02-24T21:42:44.418Z,7.30
2023-02-24T21:46:48.670Z,10.80
2023-02-24T21:50:59.181Z,7.90
2023-02-24T21:55:02.124Z,9.75
2023-02-24T21:59:08.918Z,10.43
2023-02-24T22:03:13.120Z,7.28
2023-02-24T22:07:15.906Z,11.25
2023-02-24T22:11:19.930Z,9.50
2023-02-24T22:15:22.810Z,10.27
2023-02-24T22:19:26.930Z,10.20
2023-02-24T22:23:29.641Z,7.03
2023-02-24T22:27:32.706Z,10.68
2023-02-24T22:31:38.164Z,10.45
2023-02-24T22:35:42.296Z,14.40
2023-02-24T22:39:45.142Z,7.00
2023-02-24T22:43:47.998Z,12.73
2023-02-24T22:47:50.808Z,13.73
2023-02-24T22:51:54.981Z,12.13
2023-02-24T22:55:58.006Z,9.80
2023-02-24T23:00:00.809Z,11.32
2023-02-24T23:04:05.727Z,9.98
2023-02-24T23:08:10.608Z,11.25
2023-02-24T23:12:15.292Z,9.88
2023-02-24T23:16:20.826Z,12.80
2023-02-24T23:20:23.831Z,11.48
2023-02-24T23:24:28.070Z,13.85
2023-02-24T23:28:31.441Z,12.20
2023-02-24T23:32:34.384Z,17.48
2023-02-24T23:36:39.001Z,18.80
2023-02-24T23:40:50.173Z,10.82
2023-02-24T23:44:53.797Z,10.20
2023-02-24T23:48:57.621Z,14.52
2023-02-24T23:53:01.617Z,10.02
2023-02-24T23:57:05.837Z,9.25
